sensor_id;sensor_type;location;lat;lon;timestamp;temperature;humidity
18807;DHT22;9531;52.030;4.380;2023-03-19T00:00:08;11.80;99.90
18807;DHT22;9531;52.030;4.380;2023-03-19T00:02:35;11.80;99.90
18807;DHT22;9531;52.030;4.380;2023-03-19T00:05:03;11.80;99.90
18807;DHT22;9531;52.030;4.380;2023-03-19T00:07:31;11.80;99.90
18807;DHT22;9531;52.030;4.380;2023-03-19T00:09:58;11.80;99.90
18807;DHT22;9531;52.030;4.380;2023-03-19T00:12:25;11.80;99.90
18807;DHT22;9531;52.030;4.380;2023-03-19T00:14:55;11.80;99.90
18807;DHT22;9531;52.030;4.380;2023-03-19T00:17:22;11.80;99.90
18807;DHT22;9531;52.030;4.380;2023-03-19T00:19:49;11.80;99.90
18807;DHT22;9531;52.030;4.380;2023-03-19T00:22:16;11.70;99.90
18807;DHT22;9531;52.030;4.380;2023-03-19T00:24:43;11.70;99.90
18807;DHT22;9531;52.030;4.380;2023-03-19T00:27:11;11.70;99.90
18807;DHT22;9531;52.030;4.380;2023-03-19T00:29:38;11.70;99.90
18807;DHT22;9531;52.030;4.380;2023-03-19T00:32:07;11.60;99.90
18807;DHT22;9531;52.030;4.380;2023-03-19T00:34:34;11.60;99.90
18807;DHT22;9531;52.030;4.380;2023-03-19T00:37:02;11.50;99.90
18807;DHT22;9531;52.030;4.380;2023-03-19T00:39:29;11.50;99.90
18807;DHT22;9531;52.030;4.380;2023-03-19T00:41:56;11.50;99.90
18807;DHT22;9531;52.030;4.380;2023-03-19T00:44:23;11.50;99.90
18807;DHT22;9531;52.030;4.380;2023-03-19T00:46:50;11.40;99.90
18807;DHT22;9531;52.030;4.380;2023-03-19T00:49:19;11.40;99.90
18807;DHT22;9531;52.030;4.380;2023-03-19T00:51:46;11.40;99.90
18807;DHT22;9531;52.030;4.380;2023-03-19T00:54:13;11.30;99.90
18807;DHT22;9531;52.030;4.380;2023-03-19T00:56:40;11.30;99.90
18807;DHT22;9531;52.030;4.380;2023-03-19T00:59:07;11.20;99.90
18807;DHT22;9531;52.030;4.380;2023-03-19T01:01:34;11.20;99.90
18807;DHT22;9531;52.030;4.380;2023-03-19T01:04:02;11.10;99.90
18807;DHT22;9531;52.030;4.380;2023-03-19T01:06:30;11.10;99.90
18807;DHT22;9531;52.030;4.380;2023-03-19T01:08:57;11.10;99.90
18807;DHT22;9531;52.030;4.380;2023-03-19T01:11:24;11.00;99.90
18807;DHT22;9531;52.030;4.380;2023-03-19T01:13:52;11.00;99.90
18807;DHT22;9531;52.030;4.380;2023-03-19T01:16:19;10.90;99.90
18807;DHT22;9531;52.030;4.380;2023-03-19T01:18:46;10.90;99.90
18807;DHT22;9531;52.030;4.380;2023-03-19T01:21:13;10.80;99.90
18807;DHT22;9531;52.030;4.380;2023-03-19T01:23:42;10.80;99.90
18807;DHT22;9531;52.030;4.380;2023-03-19T01:26:09;10.80;99.90
18807;DHT22;9531;52.030;4.380;2023-03-19T01:28:36;10.80;99.90
18807;DHT22;9531;52.030;4.380;2023-03-19T01:31:06;10.70;99.90
18807;DHT22;9531;52.030;4.380;2023-03-19T01:33:34;10.70;99.90
18807;DHT22;9531;52.030;4.380;2023-03-19T01:36:02;10.70;99.90
18807;DHT22;9531;52.030;4.380;2023-03-19T01:38:30;10.70;99.90
18807;DHT22;9531;52.030;4.380;2023-03-19T01:40:59;10.60;99.90
18807;DHT22;9531;52.030;4.380;2023-03-19T01:43:29;10.60;99.90
18807;DHT22;9531;52.030;4.380;2023-03-19T01:46:00;10.50;99.90
18807;DHT22;9531;52.030;4.380;2023-03-19T01:48:36;10.50;99.90
18807;DHT22;9531;52.030;4.380;2023-03-19T01:51:09;10.40;99.90
18807;DHT22;9531;52.030;4.380;2023-03-19T01:53:37;10.40;99.90
18807;DHT22;9531;52.030;4.380;2023-03-19T01:56:10;10.40;99.90
18807;DHT22;9531;52.030;4.380;2023-03-19T01:58:38;10.30;99.90
18807;DHT22;9531;52.030;4.380;2023-03-19T02:01:07;10.30;99.90
18807;DHT22;9531;52.030;4.380;2023-03-19T02:03:37;10.30;99.90
18807;DHT22;9531;52.030;4.380;2023-03-19T02:06:04;10.30;99.90
18807;DHT22;9531;52.030;4.380;2023-03-19T02:08:33;10.20;99.90
18807;DHT22;9531;52.030;4.380;2023-03-19T02:11:02;10.20;99.90
18807;DHT22;9531;52.030;4.380;2023-03-19T02:13:31;10.20;99.90
18807;DHT22;9531;52.030;4.380;2023-03-19T02:16:00;10.10;99.90
18807;DHT22;9531;52.030;4.380;2023-03-19T02:18:27;10.10;99.90
18807;DHT22;9531;52.030;4.380;2023-03-19T02:20:59;10.10;99.90
18807;DHT22;9531;52.030;4.380;2023-03-19T02:23:33;10.00;99.90
18807;DHT22;9531;52.030;4.380;2023-03-19T02:26:06;10.10;99.90
18807;DHT22;9531;52.030;4.380;2023-03-19T02:28:36;10.00;99.90
18807;DHT22;9531;52.030;4.380;2023-03-19T02:31:04;10.00;99.90
18807;DHT22;9531;52.030;4.380;2023-03-19T02:33:31;10.00;99.90
18807;DHT22;9531;52.030;4.380;2023-03-19T02:35:59;10.00;99.90
18807;DHT22;9531;52.030;4.380;2023-03-19T02:38:29;10.00;99.90
18807;DHT22;9531;52.030;4.380;2023-03-19T02:41:00;9.90;99.90
18807;DHT22;9531;52.030;4.380;2023-03-19T02:43:31;10.00;99.90
18807;DHT22;9531;52.030;4.380;2023-03-19T02:45:58;10.00;99.90
18807;DHT22;9531;52.030;4.380;2023-03-19T02:48:26;10.00;99.90
18807;DHT22;9531;52.030;4.380;2023-03-19T02:50:56;10.00;99.90
18807;DHT22;9531;52.030;4.380;2023-03-19T02:53:24;10.00;99.90
18807;DHT22;9531;52.030;4.380;2023-03-19T02:55:51;10.00;99.90
18807;DHT22;9531;52.030;4.380;2023-03-19T02:58:18;10.00;99.90
18807;DHT22;9531;52.030;4.380;2023-03-19T03:00:47;10.00;99.90
18807;DHT22;9531;52.030;4.380;2023-03-19T03:03:15;10.00;99.90
18807;DHT22;9531;52.030;4.380;2023-03-19T03:05:42;10.00;99.90
18807;DHT22;9531;52.030;4.380;2023-03-19T03:08:09;10.00;99.90
18807;DHT22;9531;52.030;4.380;2023-03-19T03:10:36;10.00;99.90
18807;DHT22;9531;52.030;4.380;2023-03-19T03:13:03;10.00;99.90
18807;DHT22;9531;52.030;4.380;2023-03-19T03:15:31;10.00;99.90
18807;DHT22;9531;52.030;4.380;2023-03-19T03:18:00;10.00;99.90
18807;DHT22;9531;52.030;4.380;2023-03-19T03:20:27;10.00;99.90
18807;DHT22;9531;52.030;4.380;2023-03-19T03:22:55;10.00;99.90
18807;DHT22;9531;52.030;4.380;2023-03-19T03:25:22;10.00;99.90
18807;DHT22;9531;52.030;4.380;2023-03-19T03:27:50;10.00;99.90
18807;DHT22;9531;52.030;4.380;2023-03-19T03:30:18;10.00;99.90
18807;DHT22;9531;52.030;4.380;2023-03-19T03:32:45;10.00;99.90
18807;DHT22;9531;52.030;4.380;2023-03-19T03:35:13;10.00;99.90
18807;DHT22;9531;52.030;4.380;2023-03-19T03:37:46;10.00;99.90
18807;DHT22;9531;52.030;4.380;2023-03-19T03:40:13;9.90;99.90
18807;DHT22;9531;52.030;4.380;2023-03-19T03:42:41;10.00;99.90
18807;DHT22;9531;52.030;4.380;2023-03-19T03:45:09;9.90;99.90
18807;DHT22;9531;52.030;4.380;2023-03-19T03:47:36;9.90;99.90
18807;DHT22;9531;52.030;4.380;2023-03-19T03:50:04;10.00;99.90
18807;DHT22;9531;52.030;4.380;2023-03-19T03:52:33;10.00;99.90
18807;DHT22;9531;52.030;4.380;2023-03-19T03:55:00;10.00;99.90
18807;DHT22;9531;52.030;4.380;2023-03-19T03:57:27;10.00;99.90
18807;DHT22;9531;52.030;4.380;2023-03-19T03:59:55;9.90;99.90
18807;DHT22;9531;52.030;4.380;2023-03-19T04:02:22;9.90;99.90
18807;DHT22;9531;52.030;4.380;2023-03-19T04:04:49;9.90;99.90
18807;DHT22;9531;52.030;4.380;2023-03-19T04:07:16;9.90;99.90
18807;DHT22;9531;52.030;4.380;2023-03-19T04:09:45;9.90;99.90
18807;DHT22;9531;52.030;4.380;2023-03-19T04:12:12;9.90;99.90
18807;DHT22;9531;52.030;4.380;2023-03-19T04:14:39;9.90;99.90
18807;DHT22;9531;52.030;4.380;2023-03-19T04:17:07;9.90;99.90
18807;DHT22;9531;52.030;4.380;2023-03-19T04:19:35;9.90;99.90
18807;DHT22;9531;52.030;4.380;2023-03-19T04:22:02;9.80;99.90
18807;DHT22;9531;52.030;4.380;2023-03-19T04:24:29;9.80;99.90
18807;DHT22;9531;52.030;4.380;2023-03-19T04:26:57;9.80;99.90
18807;DHT22;9531;52.030;4.380;2023-03-19T04:29:24;9.80;99.90
18807;DHT22;9531;52.030;4.380;2023-03-19T04:31:52;9.80;99.90
18807;DHT22;9531;52.030;4.380;2023-03-19T04:34:18;9.80;99.90
18807;DHT22;9531;52.030;4.380;2023-03-19T04:36:46;9.80;99.90
18807;DHT22;9531;52.030;4.380;2023-03-19T04:39:13;9.80;99.90
18807;DHT22;9531;52.030;4.380;2023-03-19T04:41:40;9.80;99.90
18807;DHT22;9531;52.030;4.380;2023-03-19T04:44:09;9.80;99.90
18807;DHT22;9531;52.030;4.380;2023-03-19T04:46:37;9.70;99.90
18807;DHT22;9531;52.030;4.380;2023-03-19T04:49:04;9.70;99.90
18807;DHT22;9531;52.030;4.380;2023-03-19T04:51:31;9.70;99.90
18807;DHT22;9531;52.030;4.380;2023-03-19T04:53:58;9.70;99.90
18807;DHT22;9531;52.030;4.380;2023-03-19T04:56:25;9.70;99.90
18807;DHT22;9531;52.030;4.380;2023-03-19T04:58:53;9.70;99.90
18807;DHT22;9531;52.030;4.380;2023-03-19T05:01:21;9.70;99.90
18807;DHT22;9531;52.030;4.380;2023-03-19T05:03:48;9.70;99.90
18807;DHT22;9531;52.030;4.380;2023-03-19T05:06:17;9.70;99.90
18807;DHT22;9531;52.030;4.380;2023-03-19T05:08:44;9.60;99.90
18807;DHT22;9531;52.030;4.380;2023-03-19T05:11:11;9.60;99.90
18807;DHT22;9531;52.030;4.380;2023-03-19T05:13:38;9.60;99.90
18807;DHT22;9531;52.030;4.380;2023-03-19T05:16:07;9.60;99.90
18807;DHT22;9531;52.030;4.380;2023-03-19T05:18:36;9.60;99.90
18807;DHT22;9531;52.030;4.380;2023-03-19T05:21:03;9.60;99.90
18807;DHT22;9531;52.030;4.380;2023-03-19T05:23:31;9.60;99.90
18807;DHT22;9531;52.030;4.380;2023-03-19T05:25:58;9.60;99.90
18807;DHT22;9531;52.030;4.380;2023-03-19T05:28:26;9.60;99.90
18807;DHT22;9531;52.030;4.380;2023-03-19T05:30:53;9.60;99.90
18807;DHT22;9531;52.030;4.380;2023-03-19T05:33:21;9.50;99.90
18807;DHT22;9531;52.030;4.380;2023-03-19T05:35:50;9.50;99.90
18807;DHT22;9531;52.030;4.380;2023-03-19T05:38:18;9.50;99.90
18807;DHT22;9531;52.030;4.380;2023-03-19T05:40:45;9.50;99.90
18807;DHT22;9531;52.030;4.380;2023-03-19T05:43:12;9.50;99.90
18807;DHT22;9531;52.030;4.380;2023-03-19T05:45:39;9.50;99.90
18807;DHT22;9531;52.030;4.380;2023-03-19T05:48:08;9.50;99.90
18807;DHT22;9531;52.030;4.380;2023-03-19T05:50:35;9.60;99.90
18807;DHT22;9531;52.030;4.380;2023-03-19T05:53:04;9.50;99.90
18807;DHT22;9531;52.030;4.380;2023-03-19T05:55:31;9.50;99.90
18807;DHT22;9531;52.030;4.380;2023-03-19T05:57:58;9.50;99.90
18807;DHT22;9531;52.030;4.380;2023-03-19T06:00:26;9.50;99.90
18807;DHT22;9531;52.030;4.380;2023-03-19T06:02:53;9.50;99.90
18807;DHT22;9531;52.030;4.380;2023-03-19T06:05:20;9.50;99.90
18807;DHT22;9531;52.030;4.380;2023-03-19T06:07:47;9.40;99.90
18807;DHT22;9531;52.030;4.380;2023-03-19T06:10:16;9.50;99.90
18807;DHT22;9531;52.030;4.380;2023-03-19T06:12:43;9.50;99.90
18807;DHT22;9531;52.030;4.380;2023-03-19T06:15:10;9.50;99.90
18807;DHT22;9531;52.030;4.380;2023-03-19T06:17:37;9.50;99.90
18807;DHT22;9531;52.030;4.380;2023-03-19T06:20:05;9.50;99.90
18807;DHT22;9531;52.030;4.380;2023-03-19T06:22:32;9.40;99.90
18807;DHT22;9531;52.030;4.380;2023-03-19T06:25:01;9.40;99.90
18807;DHT22;9531;52.030;4.380;2023-03-19T06:27:29;9.40;99.90
18807;DHT22;9531;52.030;4.380;2023-03-19T06:29:56;9.40;99.90
18807;DHT22;9531;52.030;4.380;2023-03-19T06:32:23;9.40;99.90
18807;DHT22;9531;52.030;4.380;2023-03-19T06:34:50;9.40;99.90
18807;DHT22;9531;52.030;4.380;2023-03-19T06:37:17;9.40;99.90
18807;DHT22;9531;52.030;4.380;2023-03-19T06:39:45;9.40;99.90
18807;DHT22;9531;52.030;4.380;2023-03-19T06:42:13;9.40;99.90
18807;DHT22;9531;52.030;4.380;2023-03-19T06:44:43;9.40;99.90
18807;DHT22;9531;52.030;4.380;2023-03-19T06:47:10;9.40;99.90
18807;DHT22;9531;52.030;4.380;2023-03-19T06:49:37;9.50;99.90
18807;DHT22;9531;52.030;4.380;2023-03-19T06:52:04;9.40;99.90
18807;DHT22;9531;52.030;4.380;2023-03-19T06:54:32;9.50;99.90
18807;DHT22;9531;52.030;4.380;2023-03-19T06:56:59;9.50;99.90
18807;DHT22;9531;52.030;4.380;2023-03-19T06:59:26;9.50;99.90
18807;DHT22;9531;52.030;4.380;2023-03-19T07:01:56;9.50;99.90
18807;DHT22;9531;52.030;4.380;2023-03-19T07:04:23;9.50;99.90
18807;DHT22;9531;52.030;4.380;2023-03-19T07:06:51;9.50;99.90
18807;DHT22;9531;52.030;4.380;2023-03-19T07:09:18;9.50;99.90
18807;DHT22;9531;52.030;4.380;2023-03-19T07:11:46;9.50;99.90
18807;DHT22;9531;52.030;4.380;2023-03-19T07:14:13;9.50;99.90
18807;DHT22;9531;52.030;4.380;2023-03-19T07:16:41;9.50;99.90
18807;DHT22;9531;52.030;4.380;2023-03-19T07:19:09;9.50;99.90
18807;DHT22;9531;52.030;4.380;2023-03-19T07:21:37;9.60;99.90
18807;DHT22;9531;52.030;4.380;2023-03-19T07:24:05;9.60;99.90
18807;DHT22;9531;52.030;4.380;2023-03-19T07:26:32;9.60;99.90
18807;DHT22;9531;52.030;4.380;2023-03-19T07:29:01;9.60;99.90
18807;DHT22;9531;52.030;4.380;2023-03-19T07:31:28;9.60;99.90
18807;DHT22;9531;52.030;4.380;2023-03-19T07:33:56;9.60;99.90
18807;DHT22;9531;52.030;4.380;2023-03-19T07:36:24;9.60;99.90
18807;DHT22;9531;52.030;4.380;2023-03-19T07:38:51;9.60;99.90
18807;DHT22;9531;52.030;4.380;2023-03-19T07:41:19;9.60;99.90
18807;DHT22;9531;52.030;4.380;2023-03-19T07:43:47;9.70;99.90
18807;DHT22;9531;52.030;4.380;2023-03-19T07:46:15;9.70;99.90
18807;DHT22;9531;52.030;4.380;2023-03-19T07:48:42;9.70;99.90
18807;DHT22;9531;52.030;4.380;2023-03-19T07:51:09;9.70;99.90
18807;DHT22;9531;52.030;4.380;2023-03-19T07:53:38;9.70;99.90
18807;DHT22;9531;52.030;4.380;2023-03-19T07:56:06;9.70;99.90
18807;DHT22;9531;52.030;4.380;2023-03-19T07:58:34;9.70;99.90
18807;DHT22;9531;52.030;4.380;2023-03-19T08:01:02;9.70;99.90
18807;DHT22;9531;52.030;4.380;2023-03-19T08:03:30;9.70;99.90
18807;DHT22;9531;52.030;4.380;2023-03-19T08:05:57;9.70;99.90
18807;DHT22;9531;52.030;4.380;2023-03-19T08:08:25;9.70;99.90
18807;DHT22;9531;52.030;4.380;2023-03-19T08:10:55;9.70;99.90
18807;DHT22;9531;52.030;4.380;2023-03-19T08:13:22;9.80;99.90
18807;DHT22;9531;52.030;4.380;2023-03-19T08:15:50;9.80;99.90
18807;DHT22;9531;52.030;4.380;2023-03-19T08:18:18;9.80;99.90
18807;DHT22;9531;52.030;4.380;2023-03-19T08:20:46;9.80;99.90
18807;DHT22;9531;52.030;4.380;2023-03-19T08:23:14;9.80;99.90
18807;DHT22;9531;52.030;4.380;2023-03-19T08:25:42;9.80;99.90
18807;DHT22;9531;52.030;4.380;2023-03-19T08:28:10;9.80;99.90
18807;DHT22;9531;52.030;4.380;2023-03-19T08:30:38;9.90;99.90
18807;DHT22;9531;52.030;4.380;2023-03-19T08:33:06;9.90;99.90
18807;DHT22;9531;52.030;4.380;2023-03-19T08:35:33;9.90;99.90
18807;DHT22;9531;52.030;4.380;2023-03-19T08:38:00;10.00;99.90
18807;DHT22;9531;52.030;4.380;2023-03-19T08:40:27;10.00;99.90
18807;DHT22;9531;52.030;4.380;2023-03-19T08:42:54;10.00;99.90
18807;DHT22;9531;52.030;4.380;2023-03-19T08:45:26;10.00;99.90
18807;DHT22;9531;52.030;4.380;2023-03-19T08:47:53;10.00;99.90
18807;DHT22;9531;52.030;4.380;2023-03-19T08:50:20;10.10;99.90
18807;DHT22;9531;52.030;4.380;2023-03-19T08:52:48;10.10;99.90
18807;DHT22;9531;52.030;4.380;2023-03-19T08:55:15;10.10;99.90
18807;DHT22;9531;52.030;4.380;2023-03-19T08:57:42;10.20;99.90
18807;DHT22;9531;52.030;4.380;2023-03-19T09:00:11;10.20;99.90
18807;DHT22;9531;52.030;4.380;2023-03-19T09:02:40;10.20;99.90
18807;DHT22;9531;52.030;4.380;2023-03-19T09:05:07;10.20;99.90
18807;DHT22;9531;52.030;4.380;2023-03-19T09:07:34;10.20;99.90
18807;DHT22;9531;52.030;4.380;2023-03-19T09:10:01;10.20;99.90
18807;DHT22;9531;52.030;4.380;2023-03-19T09:12:28;10.20;99.90
18807;DHT22;9531;52.030;4.380;2023-03-19T09:14:55;10.30;99.90
18807;DHT22;9531;52.030;4.380;2023-03-19T09:17:22;10.30;99.90
18807;DHT22;9531;52.030;4.380;2023-03-19T09:19:51;10.30;99.90
18807;DHT22;9531;52.030;4.380;2023-03-19T09:22:18;10.30;99.90
18807;DHT22;9531;52.030;4.380;2023-03-19T09:24:45;10.40;99.90
18807;DHT22;9531;52.030;4.380;2023-03-19T09:27:12;10.40;99.90
18807;DHT22;9531;52.030;4.380;2023-03-19T09:29:39;10.40;99.90
18807;DHT22;9531;52.030;4.380;2023-03-19T09:32:07;10.50;99.90
18807;DHT22;9531;52.030;4.380;2023-03-19T09:34:34;10.50;99.90
18807;DHT22;9531;52.030;4.380;2023-03-19T09:37:02;10.60;99.90
18807;DHT22;9531;52.030;4.380;2023-03-19T09:39:29;10.60;99.90
18807;DHT22;9531;52.030;4.380;2023-03-19T09:42:11;10.60;99.90
18807;DHT22;9531;52.030;4.380;2023-03-19T09:44:43;10.70;99.90
18807;DHT22;9531;52.030;4.380;2023-03-19T09:47:23;10.70;99.90
18807;DHT22;9531;52.030;4.380;2023-03-19T09:49:53;10.70;99.90
18807;DHT22;9531;52.030;4.380;2023-03-19T09:52:30;10.70;99.90
18807;DHT22;9531;52.030;4.380;2023-03-19T09:55:03;10.80;99.90
18807;DHT22;9531;52.030;4.380;2023-03-19T09:57:34;10.80;99.90
18807;DHT22;9531;52.030;4.380;2023-03-19T10:00:18;10.80;99.90
18807;DHT22;9531;52.030;4.380;2023-03-19T10:02:51;10.80;99.90
18807;DHT22;9531;52.030;4.380;2023-03-19T10:05:28;10.90;99.90
18807;DHT22;9531;52.030;4.380;2023-03-19T10:08:20;10.90;99.90
18807;DHT22;9531;52.030;4.380;2023-03-19T10:10:59;10.90;99.90
18807;DHT22;9531;52.030;4.380;2023-03-19T10:13:46;10.90;99.90
18807;DHT22;9531;52.030;4.380;2023-03-19T10:16:20;11.00;99.90
18807;DHT22;9531;52.030;4.380;2023-03-19T10:18:52;11.00;99.90
18807;DHT22;9531;52.030;4.380;2023-03-19T10:21:25;11.00;99.90
18807;DHT22;9531;52.030;4.380;2023-03-19T10:24:02;11.10;99.90
18807;DHT22;9531;52.030;4.380;2023-03-19T10:26:33;11.10;99.90
18807;DHT22;9531;52.030;4.380;2023-03-19T10:29:05;11.00;99.90
18807;DHT22;9531;52.030;4.380;2023-03-19T10:31:42;11.10;99.90
18807;DHT22;9531;52.030;4.380;2023-03-19T10:34:26;11.10;99.90
18807;DHT22;9531;52.030;4.380;2023-03-19T10:37:00;11.10;99.90
18807;DHT22;9531;52.030;4.380;2023-03-19T10:39:31;11.10;99.90
18807;DHT22;9531;52.030;4.380;2023-03-19T10:42:15;11.10;99.90
18807;DHT22;9531;52.030;4.380;2023-03-19T10:44:48;11.10;99.90
18807;DHT22;9531;52.030;4.380;2023-03-19T10:47:17;11.10;99.90
18807;DHT22;9531;52.030;4.380;2023-03-19T10:49:49;11.10;99.90
18807;DHT22;9531;52.030;4.380;2023-03-19T10:52:19;11.10;99.90
18807;DHT22;9531;52.030;4.380;2023-03-19T10:54:54;11.20;99.90
18807;DHT22;9531;52.030;4.380;2023-03-19T10:57:25;11.20;99.90
18807;DHT22;9531;52.030;4.380;2023-03-19T10:59:52;11.20;99.90
18807;DHT22;9531;52.030;4.380;2023-03-19T11:02:21;11.30;99.90
18807;DHT22;9531;52.030;4.380;2023-03-19T11:05:05;11.30;99.90
18807;DHT22;9531;52.030;4.380;2023-03-19T11:07:35;11.30;99.90
18807;DHT22;9531;52.030;4.380;2023-03-19T11:10:05;11.40;99.90
18807;DHT22;9531;52.030;4.380;2023-03-19T11:12:38;11.30;99.90
18807;DHT22;9531;52.030;4.380;2023-03-19T11:15:17;11.40;99.90
18807;DHT22;9531;52.030;4.380;2023-03-19T11:17:48;11.40;99.90
18807;DHT22;9531;52.030;4.380;2023-03-19T11:20:21;11.40;99.90
18807;DHT22;9531;52.030;4.380;2023-03-19T11:22:51;11.40;99.90
18807;DHT22;9531;52.030;4.380;2023-03-19T11:25:25;11.40;99.90
18807;DHT22;9531;52.030;4.380;2023-03-19T11:28:01;11.40;99.90
18807;DHT22;9531;52.030;4.380;2023-03-19T11:30:35;11.50;99.90
18807;DHT22;9531;52.030;4.380;2023-03-19T11:33:17;11.50;99.90
18807;DHT22;9531;52.030;4.380;2023-03-19T11:35:54;11.50;99.90
18807;DHT22;9531;52.030;4.380;2023-03-19T11:38:29;11.50;99.90
18807;DHT22;9531;52.030;4.380;2023-03-19T11:41:09;11.60;99.90
18807;DHT22;9531;52.030;4.380;2023-03-19T11:43:47;11.60;99.90
18807;DHT22;9531;52.030;4.380;2023-03-19T11:46:32;11.70;99.90
18807;DHT22;9531;52.030;4.380;2023-03-19T11:49:20;11.70;99.90
18807;DHT22;9531;52.030;4.380;2023-03-19T11:51:51;11.80;99.90
18807;DHT22;9531;52.030;4.380;2023-03-19T11:54:31;11.90;99.90
18807;DHT22;9531;52.030;4.380;2023-03-19T11:57:06;11.90;99.90
18807;DHT22;9531;52.030;4.380;2023-03-19T11:59:59;11.90;99.90
18807;DHT22;9531;52.030;4.380;2023-03-19T12:02:58;12.00;99.90
18807;DHT22;9531;52.030;4.380;2023-03-19T12:05:32;12.10;99.90
18807;DHT22;9531;52.030;4.380;2023-03-19T12:08:13;12.10;99.90
18807;DHT22;9531;52.030;4.380;2023-03-19T12:10:54;12.20;99.90
18807;DHT22;9531;52.030;4.380;2023-03-19T12:13:40;12.30;99.90
18807;DHT22;9531;52.030;4.380;2023-03-19T12:16:16;12.30;99.90
18807;DHT22;9531;52.030;4.380;2023-03-19T12:19:00;12.40;99.90
18807;DHT22;9531;52.030;4.380;2023-03-19T12:21:33;12.40;99.90
18807;DHT22;9531;52.030;4.380;2023-03-19T12:24:12;12.50;99.90
18807;DHT22;9531;52.030;4.380;2023-03-19T12:26:54;12.60;99.90
18807;DHT22;9531;52.030;4.380;2023-03-19T12:29:34;12.70;99.90
18807;DHT22;9531;52.030;4.380;2023-03-19T12:32:29;12.70;99.90
18807;DHT22;9531;52.030;4.380;2023-03-19T12:35:02;12.80;99.90
18807;DHT22;9531;52.030;4.380;2023-03-19T12:37:36;13.00;99.90
18807;DHT22;9531;52.030;4.380;2023-03-19T12:40:12;13.10;99.90
18807;DHT22;9531;52.030;4.380;2023-03-19T12:42:49;13.30;99.90
18807;DHT22;9531;52.030;4.380;2023-03-19T12:45:26;13.30;99.90
18807;DHT22;9531;52.030;4.380;2023-03-19T12:48:01;13.40;99.90
18807;DHT22;9531;52.030;4.380;2023-03-19T12:50:33;13.30;99.90
18807;DHT22;9531;52.030;4.380;2023-03-19T12:53:08;13.40;99.90
18807;DHT22;9531;52.030;4.380;2023-03-19T12:55:39;13.40;99.90
18807;DHT22;9531;52.030;4.380;2023-03-19T12:58:13;13.40;99.90
18807;DHT22;9531;52.030;4.380;2023-03-19T13:00:50;13.40;99.90
18807;DHT22;9531;52.030;4.380;2023-03-19T13:03:21;13.30;99.90
18807;DHT22;9531;52.030;4.380;2023-03-19T13:05:56;13.40;99.90
18807;DHT22;9531;52.030;4.380;2023-03-19T13:08:30;13.30;99.90
18807;DHT22;9531;52.030;4.380;2023-03-19T13:11:02;13.40;99.90
18807;DHT22;9531;52.030;4.380;2023-03-19T13:13:36;13.30;99.90
18807;DHT22;9531;52.030;4.380;2023-03-19T13:16:14;13.30;99.90
18807;DHT22;9531;52.030;4.380;2023-03-19T13:18:48;13.30;99.90
18807;DHT22;9531;52.030;4.380;2023-03-19T13:21:22;13.30;99.90
18807;DHT22;9531;52.030;4.380;2023-03-19T13:24:01;13.30;99.90
18807;DHT22;9531;52.030;4.380;2023-03-19T13:26:30;13.30;99.90
18807;DHT22;9531;52.030;4.380;2023-03-19T13:29:00;13.40;99.90
18807;DHT22;9531;52.030;4.380;2023-03-19T13:31:33;13.40;99.90
18807;DHT22;9531;52.030;4.380;2023-03-19T13:34:02;13.40;99.90
18807;DHT22;9531;52.030;4.380;2023-03-19T13:36:36;13.30;99.90
18807;DHT22;9531;52.030;4.380;2023-03-19T13:39:12;13.40;99.90
18807;DHT22;9531;52.030;4.380;2023-03-19T13:41:51;13.40;99.90
18807;DHT22;9531;52.030;4.380;2023-03-19T13:44:47;13.40;99.90
18807;DHT22;9531;52.030;4.380;2023-03-19T13:47:46;13.40;99.90
18807;DHT22;9531;52.030;4.380;2023-03-19T13:50:24;13.40;99.90
18807;DHT22;9531;52.030;4.380;2023-03-19T13:52:54;13.40;99.90
18807;DHT22;9531;52.030;4.380;2023-03-19T13:55:51;13.40;99.90
18807;DHT22;9531;52.030;4.380;2023-03-19T13:58:22;13.40;99.90
18807;DHT22;9531;52.030;4.380;2023-03-19T14:01:03;13.40;99.90
18807;DHT22;9531;52.030;4.380;2023-03-19T14:03:34;13.40;99.90
18807;DHT22;9531;52.030;4.380;2023-03-19T14:06:03;13.40;99.90
18807;DHT22;9531;52.030;4.380;2023-03-19T14:08:40;13.40;99.90
18807;DHT22;9531;52.030;4.380;2023-03-19T14:11:09;13.40;99.90
18807;DHT22;9531;52.030;4.380;2023-03-19T14:13:40;13.40;99.90
18807;DHT22;9531;52.030;4.380;2023-03-19T14:16:14;13.40;99.90
18807;DHT22;9531;52.030;4.380;2023-03-19T14:18:44;13.40;99.90
18807;DHT22;9531;52.030;4.380;2023-03-19T14:21:14;13.30;99.90
18807;DHT22;9531;52.030;4.380;2023-03-19T14:23:51;13.30;99.90
18807;DHT22;9531;52.030;4.380;2023-03-19T14:26:20;13.30;99.90
18807;DHT22;9531;52.030;4.380;2023-03-19T14:28:54;13.30;99.90
18807;DHT22;9531;52.030;4.380;2023-03-19T14:31:27;13.20;99.90
18807;DHT22;9531;52.030;4.380;2023-03-19T14:34:06;13.20;99.90
18807;DHT22;9531;52.030;4.380;2023-03-19T14:36:41;13.10;99.90
18807;DHT22;9531;52.030;4.380;2023-03-19T14:39:17;13.10;99.90
18807;DHT22;9531;52.030;4.380;2023-03-19T14:41:50;13.00;99.90
18807;DHT22;9531;52.030;4.380;2023-03-19T14:47:22;12.90;99.90
18807;DHT22;9531;52.030;4.380;2023-03-19T14:50:17;12.80;99.90
18807;DHT22;9531;52.030;4.380;2023-03-19T14:52:57;12.80;99.90
18807;DHT22;9531;52.030;4.380;2023-03-19T14:55:32;12.80;99.90
18807;DHT22;9531;52.030;4.380;2023-03-19T14:58:00;12.70;99.90
18807;DHT22;9531;52.030;4.380;2023-03-19T15:00:28;12.70;99.90
18807;DHT22;9531;52.030;4.380;2023-03-19T15:02:55;12.60;99.90
18807;DHT22;9531;52.030;4.380;2023-03-19T15:05:27;12.60;99.90
18807;DHT22;9531;52.030;4.380;2023-03-19T15:07:59;12.50;99.90
18807;DHT22;9531;52.030;4.380;2023-03-19T15:10:31;12.50;99.90
18807;DHT22;9531;52.030;4.380;2023-03-19T15:13:24;12.50;99.90
18807;DHT22;9531;52.030;4.380;2023-03-19T15:16:04;12.50;99.90
18807;DHT22;9531;52.030;4.380;2023-03-19T15:18:36;12.50;99.90
18807;DHT22;9531;52.030;4.380;2023-03-19T15:21:05;12.50;99.90
18807;DHT22;9531;52.030;4.380;2023-03-19T15:23:32;12.60;99.90
18807;DHT22;9531;52.030;4.380;2023-03-19T15:26:02;12.60;99.90
18807;DHT22;9531;52.030;4.380;2023-03-19T15:28:44;12.60;99.90
18807;DHT22;9531;52.030;4.380;2023-03-19T15:31:13;12.70;99.90
18807;DHT22;9531;52.030;4.380;2023-03-19T15:33:42;12.80;99.90
18807;DHT22;9531;52.030;4.380;2023-03-19T15:36:14;12.80;99.90
18807;DHT22;9531;52.030;4.380;2023-03-19T15:38:47;12.90;99.90
18807;DHT22;9531;52.030;4.380;2023-03-19T15:41:16;12.90;99.90
18807;DHT22;9531;52.030;4.380;2023-03-19T15:43:51;12.90;99.90
18807;DHT22;9531;52.030;4.380;2023-03-19T15:46:22;12.90;99.90
18807;DHT22;9531;52.030;4.380;2023-03-19T15:48:53;12.90;99.90
18807;DHT22;9531;52.030;4.380;2023-03-19T15:51:25;12.90;99.90
18807;DHT22;9531;52.030;4.380;2023-03-19T15:53:53;12.80;99.90
18807;DHT22;9531;52.030;4.380;2023-03-19T15:56:22;12.80;99.90
18807;DHT22;9531;52.030;4.380;2023-03-19T15:58:51;12.70;99.90
18807;DHT22;9531;52.030;4.380;2023-03-19T16:01:20;12.70;99.90
18807;DHT22;9531;52.030;4.380;2023-03-19T16:03:50;12.60;99.90
18807;DHT22;9531;52.030;4.380;2023-03-19T16:06:26;12.60;99.90
18807;DHT22;9531;52.030;4.380;2023-03-19T16:09:10;12.50;99.90
18807;DHT22;9531;52.030;4.380;2023-03-19T16:11:41;12.40;99.90
18807;DHT22;9531;52.030;4.380;2023-03-19T16:14:21;12.40;99.90